sensor_id;sensor_type;location;lat;lon;timestamp;P1;durP1;ratioP1;P2;durP2;ratioP2
9276;SDS011;4676;42.678;23.244;2022-11-14T00:00:40;56.00;;;24.33;;
9276;SDS011;4676;42.678;23.244;2022-11-14T00:03:08;60.00;;;27.93;;
9276;SDS011;4676;42.678;23.244;2022-11-14T00:05:37;50.90;;;23.83;;
9276;SDS011;4676;42.678;23.244;2022-11-14T00:08:08;58.37;;;26.80;;
9276;SDS011;4676;42.678;23.244;2022-11-14T00:10:41;60.53;;;26.73;;
9276;SDS011;4676;42.678;23.244;2022-11-14T00:13:07;69.03;;;30.53;;
9276;SDS011;4676;42.678;23.244;2022-11-14T00:15:34;66.13;;;27.80;;
9276;SDS011;4676;42.678;23.244;2022-11-14T00:18:00;66.07;;;28.03;;
9276;SDS011;4676;42.678;23.244;2022-11-14T00:20:27;71.70;;;29.40;;
9276;SDS011;4676;42.678;23.244;2022-11-14T00:22:53;67.67;;;28.80;;
9276;SDS011;4676;42.678;23.244;2022-11-14T00:25:21;62.43;;;30.17;;
9276;SDS011;4676;42.678;23.244;2022-11-14T00:27:48;63.27;;;30.30;;
9276;SDS011;4676;42.678;23.244;2022-11-14T00:30:14;67.03;;;30.60;;
9276;SDS011;4676;42.678;23.244;2022-11-14T00:32:41;75.57;;;30.30;;
9276;SDS011;4676;42.678;23.244;2022-11-14T00:35:07;78.50;;;31.20;;
9276;SDS011;4676;42.678;23.244;2022-11-14T00:37:34;70.40;;;30.23;;
9276;SDS011;4676;42.678;23.244;2022-11-14T00:40:01;67.63;;;29.63;;
9276;SDS011;4676;42.678;23.244;2022-11-14T00:42:28;67.67;;;27.93;;
9276;SDS011;4676;42.678;23.244;2022-11-14T00:44:55;65.37;;;27.70;;
9276;SDS011;4676;42.678;23.244;2022-11-14T00:47:23;58.37;;;28.63;;
9276;SDS011;4676;42.678;23.244;2022-11-14T00:49:49;62.63;;;26.63;;
9276;SDS011;4676;42.678;23.244;2022-11-14T00:52:15;64.30;;;28.60;;
9276;SDS011;4676;42.678;23.244;2022-11-14T00:54:42;52.73;;;26.40;;
9276;SDS011;4676;42.678;23.244;2022-11-14T00:57:09;65.53;;;28.73;;
9276;SDS011;4676;42.678;23.244;2022-11-14T00:59:37;57.87;;;27.93;;
9276;SDS011;4676;42.678;23.244;2022-11-14T01:02:03;60.67;;;26.27;;
9276;SDS011;4676;42.678;23.244;2022-11-14T01:04:30;61.80;;;26.10;;
9276;SDS011;4676;42.678;23.244;2022-11-14T01:06:56;68.17;;;27.90;;
9276;SDS011;4676;42.678;23.244;2022-11-14T01:09:23;62.03;;;28.27;;
9276;SDS011;4676;42.678;23.244;2022-11-14T01:11:49;61.30;;;27.47;;
9276;SDS011;4676;42.678;23.244;2022-11-14T01:14:16;53.53;;;26.60;;
9276;SDS011;4676;42.678;23.244;2022-11-14T01:16:44;55.07;;;26.17;;
9276;SDS011;4676;42.678;23.244;2022-11-14T01:19:10;58.03;;;26.30;;
9276;SDS011;4676;42.678;23.244;2022-11-14T01:21:36;49.40;;;25.23;;
9276;SDS011;4676;42.678;23.244;2022-11-14T01:24:03;55.93;;;25.23;;
9276;SDS011;4676;42.678;23.244;2022-11-14T01:26:30;56.20;;;24.80;;
9276;SDS011;4676;42.678;23.244;2022-11-14T01:28:56;53.30;;;25.50;;
9276;SDS011;4676;42.678;23.244;2022-11-14T01:31:23;59.37;;;26.50;;
9276;SDS011;4676;42.678;23.244;2022-11-14T01:33:52;46.67;;;25.33;;
9276;SDS011;4676;42.678;23.244;2022-11-14T01:36:19;55.30;;;26.00;;
9276;SDS011;4676;42.678;23.244;2022-11-14T01:38:45;60.67;;;26.80;;
9276;SDS011;4676;42.678;23.244;2022-11-14T01:41:12;56.63;;;26.70;;
9276;SDS011;4676;42.678;23.244;2022-11-14T01:43:39;59.43;;;27.20;;
9276;SDS011;4676;42.678;23.244;2022-11-14T01:46:08;69.60;;;30.00;;
9276;SDS011;4676;42.678;23.244;2022-11-14T01:48:37;60.97;;;27.20;;
9276;SDS011;4676;42.678;23.244;2022-11-14T01:51:10;63.50;;;27.93;;
9276;SDS011;4676;42.678;23.244;2022-11-14T01:53:38;58.27;;;26.93;;
9276;SDS011;4676;42.678;23.244;2022-11-14T01:56:05;50.00;;;24.77;;
9276;SDS011;4676;42.678;23.244;2022-11-14T01:58:33;57.20;;;26.20;;
9276;SDS011;4676;42.678;23.244;2022-11-14T02:01:00;56.80;;;27.90;;
9276;SDS011;4676;42.678;23.244;2022-11-14T02:03:27;67.80;;;28.53;;
9276;SDS011;4676;42.678;23.244;2022-11-14T02:05:54;78.63;;;33.97;;
9276;SDS011;4676;42.678;23.244;2022-11-14T02:08:23;66.20;;;30.87;;
9276;SDS011;4676;42.678;23.244;2022-11-14T02:10:50;62.90;;;27.53;;
9276;SDS011;4676;42.678;23.244;2022-11-14T02:13:17;65.23;;;29.53;;
9276;SDS011;4676;42.678;23.244;2022-11-14T02:15:43;65.70;;;28.87;;
9276;SDS011;4676;42.678;23.244;2022-11-14T02:18:10;64.00;;;28.63;;
9276;SDS011;4676;42.678;23.244;2022-11-14T02:20:38;62.13;;;27.53;;
9276;SDS011;4676;42.678;23.244;2022-11-14T02:23:08;70.60;;;29.07;;
9276;SDS011;4676;42.678;23.244;2022-11-14T02:25:34;64.80;;;29.77;;
9276;SDS011;4676;42.678;23.244;2022-11-14T02:28:01;71.30;;;31.37;;
9276;SDS011;4676;42.678;23.244;2022-11-14T02:30:27;65.07;;;28.43;;
9276;SDS011;4676;42.678;23.244;2022-11-14T02:32:54;64.13;;;28.33;;
9276;SDS011;4676;42.678;23.244;2022-11-14T02:35:20;55.93;;;27.23;;
9276;SDS011;4676;42.678;23.244;2022-11-14T02:37:49;59.07;;;27.73;;
9276;SDS011;4676;42.678;23.244;2022-11-14T02:40:15;57.43;;;25.10;;
9276;SDS011;4676;42.678;23.244;2022-11-14T02:42:42;60.63;;;26.73;;
9276;SDS011;4676;42.678;23.244;2022-11-14T02:45:08;57.73;;;27.60;;
9276;SDS011;4676;42.678;23.244;2022-11-14T02:47:35;60.10;;;26.50;;
9276;SDS011;4676;42.678;23.244;2022-11-14T02:50:02;53.17;;;25.53;;
9276;SDS011;4676;42.678;23.244;2022-11-14T02:52:29;52.13;;;24.70;;
9276;SDS011;4676;42.678;23.244;2022-11-14T02:54:56;54.80;;;25.87;;
9276;SDS011;4676;42.678;23.244;2022-11-14T02:57:23;57.67;;;26.33;;
9276;SDS011;4676;42.678;23.244;2022-11-14T02:59:50;56.23;;;24.93;;
9276;SDS011;4676;42.678;23.244;2022-11-14T03:02:16;63.53;;;26.63;;
9276;SDS011;4676;42.678;23.244;2022-11-14T03:04:43;54.03;;;22.63;;
9276;SDS011;4676;42.678;23.244;2022-11-14T03:07:09;52.03;;;24.07;;
9276;SDS011;4676;42.678;23.244;2022-11-14T03:09:36;44.77;;;20.97;;
9276;SDS011;4676;42.678;23.244;2022-11-14T03:12:04;39.37;;;19.43;;
9276;SDS011;4676;42.678;23.244;2022-11-14T03:14:31;38.40;;;20.13;;
9276;SDS011;4676;42.678;23.244;2022-11-14T03:16:57;40.43;;;17.80;;
9276;SDS011;4676;42.678;23.244;2022-11-14T03:19:24;40.43;;;19.33;;
9276;SDS011;4676;42.678;23.244;2022-11-14T03:21:50;36.83;;;16.53;;
9276;SDS011;4676;42.678;23.244;2022-11-14T03:24:17;38.80;;;18.63;;
9276;SDS011;4676;42.678;23.244;2022-11-14T03:26:43;34.60;;;16.60;;
9276;SDS011;4676;42.678;23.244;2022-11-14T03:29:11;34.70;;;17.80;;
9276;SDS011;4676;42.678;23.244;2022-11-14T03:31:38;33.27;;;16.80;;
9276;SDS011;4676;42.678;23.244;2022-11-14T03:34:04;33.30;;;17.03;;
9276;SDS011;4676;42.678;23.244;2022-11-14T03:36:31;38.77;;;18.30;;
9276;SDS011;4676;42.678;23.244;2022-11-14T03:38:57;32.27;;;18.00;;
9276;SDS011;4676;42.678;23.244;2022-11-14T03:41:24;34.00;;;16.97;;
9276;SDS011;4676;42.678;23.244;2022-11-14T03:43:50;36.30;;;18.37;;
9276;SDS011;4676;42.678;23.244;2022-11-14T03:46:18;35.23;;;17.63;;
9276;SDS011;4676;42.678;23.244;2022-11-14T03:48:45;37.03;;;18.10;;
9276;SDS011;4676;42.678;23.244;2022-11-14T03:51:11;31.60;;;17.83;;
9276;SDS011;4676;42.678;23.244;2022-11-14T03:53:37;30.93;;;16.57;;
9276;SDS011;4676;42.678;23.244;2022-11-14T03:56:04;39.33;;;19.63;;
9276;SDS011;4676;42.678;23.244;2022-11-14T03:58:31;41.10;;;20.33;;
9276;SDS011;4676;42.678;23.244;2022-11-14T04:00:57;37.50;;;19.27;;
9276;SDS011;4676;42.678;23.244;2022-11-14T04:03:25;37.30;;;17.60;;
9276;SDS011;4676;42.678;23.244;2022-11-14T04:05:51;42.40;;;21.57;;
9276;SDS011;4676;42.678;23.244;2022-11-14T04:08:18;45.27;;;19.87;;
9276;SDS011;4676;42.678;23.244;2022-11-14T04:10:45;40.00;;;21.33;;
9276;SDS011;4676;42.678;23.244;2022-11-14T04:13:12;43.80;;;20.27;;
9276;SDS011;4676;42.678;23.244;2022-11-14T04:15:38;50.60;;;22.30;;
9276;SDS011;4676;42.678;23.244;2022-11-14T04:18:05;52.93;;;22.17;;
9276;SDS011;4676;42.678;23.244;2022-11-14T04:20:32;46.33;;;21.87;;
9276;SDS011;4676;42.678;23.244;2022-11-14T04:22:59;49.23;;;21.77;;
9276;SDS011;4676;42.678;23.244;2022-11-14T04:25:26;42.30;;;21.73;;
9276;SDS011;4676;42.678;23.244;2022-11-14T04:27:52;34.47;;;19.03;;
9276;SDS011;4676;42.678;23.244;2022-11-14T04:30:19;44.83;;;19.67;;
9276;SDS011;4676;42.678;23.244;2022-11-14T04:32:46;46.17;;;19.70;;
9276;SDS011;4676;42.678;23.244;2022-11-14T04:35:13;33.67;;;17.47;;
9276;SDS011;4676;42.678;23.244;2022-11-14T04:37:41;34.90;;;18.00;;
9276;SDS011;4676;42.678;23.244;2022-11-14T04:40:08;44.50;;;16.93;;
9276;SDS011;4676;42.678;23.244;2022-11-14T04:42:34;42.43;;;18.03;;
9276;SDS011;4676;42.678;23.244;2022-11-14T04:45:01;31.67;;;16.87;;
9276;SDS011;4676;42.678;23.244;2022-11-14T04:47:27;31.47;;;16.43;;
9276;SDS011;4676;42.678;23.244;2022-11-14T04:49:54;30.13;;;16.50;;
9276;SDS011;4676;42.678;23.244;2022-11-14T04:52:20;33.43;;;16.50;;
9276;SDS011;4676;42.678;23.244;2022-11-14T04:54:48;33.67;;;15.70;;
9276;SDS011;4676;42.678;23.244;2022-11-14T04:57:15;29.70;;;15.40;;
9276;SDS011;4676;42.678;23.244;2022-11-14T04:59:41;27.17;;;14.23;;
9276;SDS011;4676;42.678;23.244;2022-11-14T05:02:08;32.10;;;15.53;;
9276;SDS011;4676;42.678;23.244;2022-11-14T05:04:34;33.20;;;15.67;;
9276;SDS011;4676;42.678;23.244;2022-11-14T05:07:01;39.17;;;17.03;;
9276;SDS011;4676;42.678;23.244;2022-11-14T05:09:28;47.67;;;21.00;;
9276;SDS011;4676;42.678;23.244;2022-11-14T05:11:56;38.00;;;19.63;;
9276;SDS011;4676;42.678;23.244;2022-11-14T05:14:23;53.73;;;24.00;;
9276;SDS011;4676;42.678;23.244;2022-11-14T05:16:50;53.27;;;22.20;;
9276;SDS011;4676;42.678;23.244;2022-11-14T05:19:16;46.43;;;22.30;;
9276;SDS011;4676;42.678;23.244;2022-11-14T05:21:43;52.60;;;21.80;;
9276;SDS011;4676;42.678;23.244;2022-11-14T05:24:10;46.03;;;21.20;;
9276;SDS011;4676;42.678;23.244;2022-11-14T05:26:36;63.03;;;26.80;;
9276;SDS011;4676;42.678;23.244;2022-11-14T05:29:05;73.43;;;26.40;;
9276;SDS011;4676;42.678;23.244;2022-11-14T05:31:32;61.83;;;24.93;;
9276;SDS011;4676;42.678;23.244;2022-11-14T05:33:59;70.53;;;27.30;;
9276;SDS011;4676;42.678;23.244;2022-11-14T05:36:26;67.63;;;26.53;;
9276;SDS011;4676;42.678;23.244;2022-11-14T05:38:53;68.63;;;27.17;;
9276;SDS011;4676;42.678;23.244;2022-11-14T05:41:19;70.40;;;26.20;;
9276;SDS011;4676;42.678;23.244;2022-11-14T05:43:46;83.53;;;27.13;;
9276;SDS011;4676;42.678;23.244;2022-11-14T05:46:15;70.47;;;26.40;;
9276;SDS011;4676;42.678;23.244;2022-11-14T05:48:42;85.00;;;28.73;;
9276;SDS011;4676;42.678;23.244;2022-11-14T05:51:09;67.90;;;26.83;;
9276;SDS011;4676;42.678;23.244;2022-11-14T05:53:37;74.63;;;26.27;;
9276;SDS011;4676;42.678;23.244;2022-11-14T05:56:06;69.70;;;28.53;;
9276;SDS011;4676;42.678;23.244;2022-11-14T05:58:35;83.17;;;28.93;;
9276;SDS011;4676;42.678;23.244;2022-11-14T06:01:03;75.83;;;27.73;;
9276;SDS011;4676;42.678;23.244;2022-11-14T06:03:33;64.67;;;28.23;;
9276;SDS011;4676;42.678;23.244;2022-11-14T06:06:01;76.63;;;28.27;;
9276;SDS011;4676;42.678;23.244;2022-11-14T06:08:29;69.73;;;28.03;;
9276;SDS011;4676;42.678;23.244;2022-11-14T06:11:00;76.27;;;25.23;;
9276;SDS011;4676;42.678;23.244;2022-11-14T06:13:28;73.87;;;27.00;;
9276;SDS011;4676;42.678;23.244;2022-11-14T06:15:57;75.53;;;27.73;;
9276;SDS011;4676;42.678;23.244;2022-11-14T06:18:24;71.27;;;27.23;;
9276;SDS011;4676;42.678;23.244;2022-11-14T06:20:53;68.00;;;26.33;;
9276;SDS011;4676;42.678;23.244;2022-11-14T06:23:23;66.73;;;24.30;;
9276;SDS011;4676;42.678;23.244;2022-11-14T06:25:50;63.07;;;26.63;;
9276;SDS011;4676;42.678;23.244;2022-11-14T06:28:17;73.77;;;24.07;;
9276;SDS011;4676;42.678;23.244;2022-11-14T06:30:43;63.67;;;22.53;;
9276;SDS011;4676;42.678;23.244;2022-11-14T06:33:10;65.97;;;22.57;;
9276;SDS011;4676;42.678;23.244;2022-11-14T06:35:37;56.60;;;21.63;;
9276;SDS011;4676;42.678;23.244;2022-11-14T06:38:05;55.67;;;22.53;;
9276;SDS011;4676;42.678;23.244;2022-11-14T06:40:32;59.50;;;22.37;;
9276;SDS011;4676;42.678;23.244;2022-11-14T06:42:58;56.77;;;23.07;;
9276;SDS011;4676;42.678;23.244;2022-11-14T06:45:25;61.50;;;22.40;;
9276;SDS011;4676;42.678;23.244;2022-11-14T06:47:52;53.30;;;22.00;;
9276;SDS011;4676;42.678;23.244;2022-11-14T06:50:18;69.27;;;23.70;;
9276;SDS011;4676;42.678;23.244;2022-11-14T06:52:45;74.07;;;23.37;;
9276;SDS011;4676;42.678;23.244;2022-11-14T06:55:13;63.00;;;23.57;;
9276;SDS011;4676;42.678;23.244;2022-11-14T06:57:40;50.83;;;20.90;;
9276;SDS011;4676;42.678;23.244;2022-11-14T07:00:07;77.20;;;26.33;;
9276;SDS011;4676;42.678;23.244;2022-11-14T07:02:34;65.67;;;22.90;;
9276;SDS011;4676;42.678;23.244;2022-11-14T07:05:01;54.17;;;23.67;;
9276;SDS011;4676;42.678;23.244;2022-11-14T07:07:28;66.50;;;24.40;;
9276;SDS011;4676;42.678;23.244;2022-11-14T07:09:55;67.40;;;25.23;;
9276;SDS011;4676;42.678;23.244;2022-11-14T07:12:24;60.70;;;23.90;;
9276;SDS011;4676;42.678;23.244;2022-11-14T07:14:51;61.43;;;24.90;;
9276;SDS011;4676;42.678;23.244;2022-11-14T07:17:17;69.70;;;24.70;;
9276;SDS011;4676;42.678;23.244;2022-11-14T07:19:44;73.20;;;25.37;;
9276;SDS011;4676;42.678;23.244;2022-11-14T07:22:11;72.40;;;25.53;;
9276;SDS011;4676;42.678;23.244;2022-11-14T07:24:38;80.63;;;27.40;;
9276;SDS011;4676;42.678;23.244;2022-11-14T07:27:04;73.90;;;26.73;;
9276;SDS011;4676;42.678;23.244;2022-11-14T07:29:34;86.00;;;28.93;;
9276;SDS011;4676;42.678;23.244;2022-11-14T07:32:01;81.47;;;27.77;;
9276;SDS011;4676;42.678;23.244;2022-11-14T07:34:28;80.87;;;27.67;;
9276;SDS011;4676;42.678;23.244;2022-11-14T07:37:00;68.67;;;26.30;;
9276;SDS011;4676;42.678;23.244;2022-11-14T07:39:27;80.77;;;28.73;;
9276;SDS011;4676;42.678;23.244;2022-11-14T07:41:53;85.37;;;27.60;;
9276;SDS011;4676;42.678;23.244;2022-11-14T07:44:20;83.83;;;27.87;;
9276;SDS011;4676;42.678;23.244;2022-11-14T07:46:48;86.57;;;27.53;;
9276;SDS011;4676;42.678;23.244;2022-11-14T07:49:16;99.43;;;27.07;;
9276;SDS011;4676;42.678;23.244;2022-11-14T07:51:42;84.63;;;29.00;;
9276;SDS011;4676;42.678;23.244;2022-11-14T07:54:09;98.53;;;29.90;;
9276;SDS011;4676;42.678;23.244;2022-11-14T07:56:37;95.67;;;30.57;;
9276;SDS011;4676;42.678;23.244;2022-11-14T07:59:04;106.07;;;30.43;;
9276;SDS011;4676;42.678;23.244;2022-11-14T08:01:30;102.30;;;32.80;;
9276;SDS011;4676;42.678;23.244;2022-11-14T08:03:59;82.57;;;28.77;;
9276;SDS011;4676;42.678;23.244;2022-11-14T08:06:25;86.67;;;29.33;;
9276;SDS011;4676;42.678;23.244;2022-11-14T08:08:52;101.70;;;30.50;;
9276;SDS011;4676;42.678;23.244;2022-11-14T08:11:19;88.50;;;30.00;;
9276;SDS011;4676;42.678;23.244;2022-11-14T08:14:06;86.90;;;29.20;;
9276;SDS011;4676;42.678;23.244;2022-11-14T08:16:33;85.37;;;28.43;;
9276;SDS011;4676;42.678;23.244;2022-11-14T08:19:01;80.23;;;27.97;;
9276;SDS011;4676;42.678;23.244;2022-11-14T08:21:28;99.97;;;29.67;;
9276;SDS011;4676;42.678;23.244;2022-11-14T08:23:55;89.07;;;30.33;;
9276;SDS011;4676;42.678;23.244;2022-11-14T08:26:22;90.77;;;30.07;;
9276;SDS011;4676;42.678;23.244;2022-11-14T08:28:50;111.50;;;31.43;;
9276;SDS011;4676;42.678;23.244;2022-11-14T08:31:17;102.83;;;32.13;;
9276;SDS011;4676;42.678;23.244;2022-11-14T08:33:45;99.80;;;30.83;;
9276;SDS011;4676;42.678;23.244;2022-11-14T08:36:15;103.03;;;31.03;;
9276;SDS011;4676;42.678;23.244;2022-11-14T08:38:42;107.13;;;33.27;;
9276;SDS011;4676;42.678;23.244;2022-11-14T08:41:09;102.13;;;32.83;;
9276;SDS011;4676;42.678;23.244;2022-11-14T08:43:36;100.87;;;33.80;;
9276;SDS011;4676;42.678;23.244;2022-11-14T08:46:03;111.70;;;33.27;;
9276;SDS011;4676;42.678;23.244;2022-11-14T08:48:31;113.87;;;33.90;;
9276;SDS011;4676;42.678;23.244;2022-11-14T08:51:01;102.87;;;33.63;;
9276;SDS011;4676;42.678;23.244;2022-11-14T08:53:31;97.73;;;31.77;;
9276;SDS011;4676;42.678;23.244;2022-11-14T08:55:58;101.77;;;33.77;;
9276;SDS011;4676;42.678;23.244;2022-11-14T08:58:26;108.17;;;36.20;;
9276;SDS011;4676;42.678;23.244;2022-11-14T09:00:57;89.93;;;32.47;;
9276;SDS011;4676;42.678;23.244;2022-11-14T09:03:25;94.40;;;33.60;;
9276;SDS011;4676;42.678;23.244;2022-11-14T09:05:52;110.63;;;35.13;;
9276;SDS011;4676;42.678;23.244;2022-11-14T09:08:19;93.47;;;33.17;;
9276;SDS011;4676;42.678;23.244;2022-11-14T09:10:47;101.10;;;33.43;;
9276;SDS011;4676;42.678;23.244;2022-11-14T09:13:14;103.23;;;32.83;;
9276;SDS011;4676;42.678;23.244;2022-11-14T09:15:41;97.60;;;33.17;;
9276;SDS011;4676;42.678;23.244;2022-11-14T09:18:08;103.50;;;33.30;;
9276;SDS011;4676;42.678;23.244;2022-11-14T09:20:36;101.67;;;33.07;;
9276;SDS011;4676;42.678;23.244;2022-11-14T09:23:04;103.83;;;33.70;;
9276;SDS011;4676;42.678;23.244;2022-11-14T09:25:30;102.90;;;34.20;;
9276;SDS011;4676;42.678;23.244;2022-11-14T09:28:01;107.27;;;33.47;;
9276;SDS011;4676;42.678;23.244;2022-11-14T09:30:30;113.13;;;35.27;;
9276;SDS011;4676;42.678;23.244;2022-11-14T09:32:58;102.93;;;34.17;;
9276;SDS011;4676;42.678;23.244;2022-11-14T09:35:26;93.33;;;32.73;;
9276;SDS011;4676;42.678;23.244;2022-11-14T09:37:58;97.63;;;32.77;;
9276;SDS011;4676;42.678;23.244;2022-11-14T09:40:25;101.63;;;33.67;;
9276;SDS011;4676;42.678;23.244;2022-11-14T09:42:56;101.53;;;33.70;;
9276;SDS011;4676;42.678;23.244;2022-11-14T09:45:34;113.37;;;36.50;;
9276;SDS011;4676;42.678;23.244;2022-11-14T09:48:11;113.77;;;35.63;;
9276;SDS011;4676;42.678;23.244;2022-11-14T09:50:41;103.60;;;34.97;;
9276;SDS011;4676;42.678;23.244;2022-11-14T09:53:15;113.40;;;36.27;;
9276;SDS011;4676;42.678;23.244;2022-11-14T09:55:51;99.50;;;35.83;;
9276;SDS011;4676;42.678;23.244;2022-11-14T09:58:19;95.67;;;35.57;;
9276;SDS011;4676;42.678;23.244;2022-11-14T10:00:49;95.17;;;35.70;;
9276;SDS011;4676;42.678;23.244;2022-11-14T10:03:24;88.67;;;34.17;;
9276;SDS011;4676;42.678;23.244;2022-11-14T10:08:50;91.23;;;35.83;;
9276;SDS011;4676;42.678;23.244;2022-11-14T10:11:28;91.57;;;35.40;;
9276;SDS011;4676;42.678;23.244;2022-11-14T10:14:07;95.33;;;36.93;;
9276;SDS011;4676;42.678;23.244;2022-11-14T10:16:48;86.33;;;33.93;;
9276;SDS011;4676;42.678;23.244;2022-11-14T10:19:25;87.80;;;32.37;;
9276;SDS011;4676;42.678;23.244;2022-11-14T10:22:03;81.83;;;33.47;;
9276;SDS011;4676;42.678;23.244;2022-11-14T10:27:41;73.27;;;30.83;;
9276;SDS011;4676;42.678;23.244;2022-11-14T10:30:16;70.53;;;30.87;;
9276;SDS011;4676;42.678;23.244;2022-11-14T10:32:50;69.83;;;30.37;;
9276;SDS011;4676;42.678;23.244;2022-11-14T10:35:30;64.87;;;27.00;;
9276;SDS011;4676;42.678;23.244;2022-11-14T10:38:03;68.53;;;29.60;;
9276;SDS011;4676;42.678;23.244;2022-11-14T10:40:37;69.93;;;29.73;;
9276;SDS011;4676;42.678;23.244;2022-11-14T10:43:10;62.97;;;28.83;;
9276;SDS011;4676;42.678;23.244;2022-11-14T10:45:48;66.73;;;30.20;;
9276;SDS011;4676;42.678;23.244;2022-11-14T10:48:19;63.43;;;29.20;;
9276;SDS011;4676;42.678;23.244;2022-11-14T10:50:54;63.83;;;28.73;;
9276;SDS011;4676;42.678;23.244;2022-11-14T10:53:26;70.43;;;30.20;;
9276;SDS011;4676;42.678;23.244;2022-11-14T10:56:00;68.67;;;30.23;;
9276;SDS011;4676;42.678;23.244;2022-11-14T10:58:27;69.87;;;29.27;;
9276;SDS011;4676;42.678;23.244;2022-11-14T11:00:55;67.30;;;30.63;;
9276;SDS011;4676;42.678;23.244;2022-11-14T11:03:38;74.37;;;29.50;;
9276;SDS011;4676;42.678;23.244;2022-11-14T11:06:08;70.90;;;30.50;;
9276;SDS011;4676;42.678;23.244;2022-11-14T11:08:50;76.50;;;31.33;;
9276;SDS011;4676;42.678;23.244;2022-11-14T11:11:36;78.37;;;34.00;;
9276;SDS011;4676;42.678;23.244;2022-11-14T11:14:13;67.93;;;33.57;;
9276;SDS011;4676;42.678;23.244;2022-11-14T11:16:43;75.90;;;33.00;;
9276;SDS011;4676;42.678;23.244;2022-11-14T11:19:12;77.57;;;34.37;;
9276;SDS011;4676;42.678;23.244;2022-11-14T11:21:47;82.57;;;34.50;;
9276;SDS011;4676;42.678;23.244;2022-11-14T11:24:28;67.87;;;31.77;;
9276;SDS011;4676;42.678;23.244;2022-11-14T11:29:39;77.90;;;32.20;;
9276;SDS011;4676;42.678;23.244;2022-11-14T11:32:08;87.77;;;36.53;;
9276;SDS011;4676;42.678;23.244;2022-11-14T11:34:35;81.67;;;35.77;;
9276;SDS011;4676;42.678;23.244;2022-11-14T11:37:04;81.23;;;36.90;;
9276;SDS011;4676;42.678;23.244;2022-11-14T11:39:39;80.63;;;34.80;;
9276;SDS011;4676;42.678;23.244;2022-11-14T11:42:11;75.97;;;34.43;;
9276;SDS011;4676;42.678;23.244;2022-11-14T11:44:44;82.93;;;35.90;;
9276;SDS011;4676;42.678;23.244;2022-11-14T11:47:17;83.40;;;35.90;;
9276;SDS011;4676;42.678;23.244;2022-11-14T11:49:46;76.93;;;34.83;;
9276;SDS011;4676;42.678;23.244;2022-11-14T11:52:15;85.30;;;35.73;;
9276;SDS011;4676;42.678;23.244;2022-11-14T11:54:49;88.63;;;39.10;;
9276;SDS011;4676;42.678;23.244;2022-11-14T11:57:25;86.23;;;37.77;;
9276;SDS011;4676;42.678;23.244;2022-11-14T11:59:58;101.63;;;45.37;;
9276;SDS011;4676;42.678;23.244;2022-11-14T12:05:01;83.63;;;38.07;;
9276;SDS011;4676;42.678;23.244;2022-11-14T12:07:32;82.23;;;36.17;;
9276;SDS011;4676;42.678;23.244;2022-11-14T12:10:12;94.97;;;41.60;;
9276;SDS011;4676;42.678;23.244;2022-11-14T12:15:49;92.47;;;41.93;;
9276;SDS011;4676;42.678;23.244;2022-11-14T12:21:36;111.83;;;48.23;;
9276;SDS011;4676;42.678;23.244;2022-11-14T12:24:26;79.63;;;37.13;;
9276;SDS011;4676;42.678;23.244;2022-11-14T12:27:14;86.57;;;38.87;;
9276;SDS011;4676;42.678;23.244;2022-11-14T12:29:54;81.53;;;36.10;;
9276;SDS011;4676;42.678;23.244;2022-11-14T12:32:39;76.90;;;33.40;;
9276;SDS011;4676;42.678;23.244;2022-11-14T12:35:13;81.47;;;33.10;;
9276;SDS011;4676;42.678;23.244;2022-11-14T12:37:46;72.07;;;34.87;;
9276;SDS011;4676;42.678;23.244;2022-11-14T12:40:23;62.57;;;31.47;;
9276;SDS011;4676;42.678;23.244;2022-11-14T12:42:54;72.50;;;33.03;;
9276;SDS011;4676;42.678;23.244;2022-11-14T12:48:22;82.07;;;31.23;;
9276;SDS011;4676;42.678;23.244;2022-11-14T12:50:54;72.90;;;31.97;;
9276;SDS011;4676;42.678;23.244;2022-11-14T12:59:05;74.23;;;33.63;;
9276;SDS011;4676;42.678;23.244;2022-11-14T13:04:25;65.73;;;32.30;;
9276;SDS011;4676;42.678;23.244;2022-11-14T13:06:58;72.73;;;32.17;;
9276;SDS011;4676;42.678;23.244;2022-11-14T13:09:34;65.07;;;30.93;;
9276;SDS011;4676;42.678;23.244;2022-11-14T13:15:23;80.40;;;32.27;;
9276;SDS011;4676;42.678;23.244;2022-11-14T13:18:11;68.80;;;32.53;;
9276;SDS011;4676;42.678;23.244;2022-11-14T13:21:00;75.53;;;33.27;;
9276;SDS011;4676;42.678;23.244;2022-11-14T13:23:56;92.03;;;41.07;;
9276;SDS011;4676;42.678;23.244;2022-11-14T13:29:45;79.17;;;36.47;;
9276;SDS011;4676;42.678;23.244;2022-11-14T13:32:12;91.83;;;37.90;;
9276;SDS011;4676;42.678;23.244;2022-11-14T13:34:59;138.43;;;57.57;;
9276;SDS011;4676;42.678;23.244;2022-11-14T13:37:33;116.47;;;52.20;;
9276;SDS011;4676;42.678;23.244;2022-11-14T13:40:04;87.90;;;39.13;;
9276;SDS011;4676;42.678;23.244;2022-11-14T13:42:39;85.23;;;40.23;;
9276;SDS011;4676;42.678;23.244;2022-11-14T13:45:21;90.97;;;38.20;;
9276;SDS011;4676;42.678;23.244;2022-11-14T13:50:34;86.20;;;37.83;;
9276;SDS011;4676;42.678;23.244;2022-11-14T13:53:02;97.33;;;37.13;;
9276;SDS011;4676;42.678;23.244;2022-11-14T13:55:37;74.30;;;36.03;;
9276;SDS011;4676;42.678;23.244;2022-11-14T13:58:13;88.77;;;37.17;;
9276;SDS011;4676;42.678;23.244;2022-11-14T14:00:47;94.20;;;42.13;;
9276;SDS011;4676;42.678;23.244;2022-11-14T14:03:31;115.97;;;57.40;;
9276;SDS011;4676;42.678;23.244;2022-11-14T14:06:06;120.10;;;52.27;;
9276;SDS011;4676;42.678;23.244;2022-11-14T14:08:46;101.00;;;45.03;;
9276;SDS011;4676;42.678;23.244;2022-11-14T14:11:22;154.07;;;62.23;;
9276;SDS011;4676;42.678;23.244;2022-11-14T14:13:57;92.10;;;43.80;;
9276;SDS011;4676;42.678;23.244;2022-11-14T14:16:28;96.10;;;44.40;;
9276;SDS011;4676;42.678;23.244;2022-11-14T14:18:58;131.47;;;49.33;;
9276;SDS011;4676;42.678;23.244;2022-11-14T14:21:30;239.03;;;92.93;;
9276;SDS011;4676;42.678;23.244;2022-11-14T14:24:01;207.17;;;82.30;;
9276;SDS011;4676;42.678;23.244;2022-11-14T14:26:31;128.97;;;53.87;;
9276;SDS011;4676;42.678;23.244;2022-11-14T14:29:05;101.07;;;44.83;;
9276;SDS011;4676;42.678;23.244;2022-11-14T14:31:38;125.30;;;48.63;;
9276;SDS011;4676;42.678;23.244;2022-11-14T14:34:19;134.27;;;54.10;;
9276;SDS011;4676;42.678;23.244;2022-11-14T14:36:49;136.23;;;49.40;;
9276;SDS011;4676;42.678;23.244;2022-11-14T14:39:16;103.37;;;43.50;;
9276;SDS011;4676;42.678;23.244;2022-11-14T14:41:43;112.53;;;42.97;;
9276;SDS011;4676;42.678;23.244;2022-11-14T14:44:16;124.93;;;44.60;;
9276;SDS011;4676;42.678;23.244;2022-11-14T14:46:44;118.00;;;44.37;;
9276;SDS011;4676;42.678;23.244;2022-11-14T14:49:10;105.07;;;41.50;;
9276;SDS011;4676;42.678;23.244;2022-11-14T14:51:42;117.23;;;49.77;;
9276;SDS011;4676;42.678;23.244;2022-11-14T14:54:17;131.07;;;51.70;;
9276;SDS011;4676;42.678;23.244;2022-11-14T14:56:50;145.97;;;51.37;;
9276;SDS011;4676;42.678;23.244;2022-11-14T14:59:21;167.13;;;60.10;;
9276;SDS011;4676;42.678;23.244;2022-11-14T15:01:48;180.50;;;60.27;;
9276;SDS011;4676;42.678;23.244;2022-11-14T15:04:14;155.73;;;57.60;;
9276;SDS011;4676;42.678;23.244;2022-11-14T15:06:43;133.70;;;51.97;;
9276;SDS011;4676;42.678;23.244;2022-11-14T15:09:12;141.13;;;49.73;;
9276;SDS011;4676;42.678;23.244;2022-11-14T15:11:40;127.50;;;49.07;;
9276;SDS011;4676;42.678;23.244;2022-11-14T15:14:08;117.03;;;45.40;;
9276;SDS011;4676;42.678;23.244;2022-11-14T15:16:38;125.60;;;46.47;;
9276;SDS011;4676;42.678;23.244;2022-11-14T15:19:05;128.53;;;46.13;;
9276;SDS011;4676;42.678;23.244;2022-11-14T15:21:35;107.23;;;44.27;;
9276;SDS011;4676;42.678;23.244;2022-11-14T15:24:02;126.27;;;48.43;;